Anchor Point, AK (99556)

6:00 AM AKDT on September 19, 2014 (GMT -0800)
KAKHOMER5 | Change Station
CLOSE
Current Station
Personal Weather Station
Location: Homer, AK
Elevation: 1152 ft
Nearby Weather Stations

Elev 1152 ft 59.67 °N, 151.49 °W | Updated 36 seconds ago

Light Rain
Light Rain
45.9 °F
Feels Like 46 °F
N
0.0
Wind Variable Wind from West
Gusts 1.0 mph

Today
High -- | Low -- °F
--% Chance of Precip.
Yesterday
High -- | Low -- °F
Precip. -- in
7:44 AM 8:15 PM
Waning Crescent, 19% visible
Pressure 29.15 in
Visibility 10.0 miles
Clouds Mostly Cloudy 2000 ft
Overcast 3700 ft
Windchill 46 °F
Dew Point 45 °F
Humidity 97%
Rainfall 0.23 in
Snow Depth 2 in , 4 in , 1 in
UV 0 out of 12
Pollen Not available.
Air Quality Not available.
Flu Activity Not available.
METAR PAHO 191353Z 00000KT 10SM -RA BKN020 OVC037 11/08 A2915 RMK AO2 SLP871 P0007 T01110078

More Conditions Fewer Conditions

Pressure 29.15 in
Visibility 10.0 miles
Clouds Mostly Cloudy 2000 ft
Overcast 3700 ft
Windchill 46 °F
Dew Point 45 °F
Humidity 97%
Rainfall 0.23 in
Snow Depth 2 in , 4 in , 1 in
UV 0 out of 12
Pollen Not available.
Air Quality Not available.
Flu Activity Not available.
METAR PAHO 191353Z 00000KT 10SM -RA BKN020 OVC037 11/08 A2915 RMK AO2 SLP871 P0007 T01110078

More Conditions Fewer Conditions

10-Day Weather Forecast

Almanac

Astronomy

Sep. 19, 2014 Rise Set
Actual Time 7:44 AM AKDT 8:15 PM AKDT
Civil Twilight 7:03 AM AKDT 8:56 PM AKDT
Nautical Twilight 6:12 AM AKDT 9:46 PM AKDT
Astronomical Twilight 5:17 AM AKDT 10:41 PM AKDT
Moon 2:50 AM AKDT 6:31 PM AKDT
Length of Visible Light 13h 53m
Length of Day
12h 30m
Tomorrow will be 5m 21s shorter.
Waning Crescent, 19% of the Moon is Illuminated
Today
Waning Crescent
Sep 24
New
Oct 1
First Quarter
Oct 8
Full
Oct 15
Last Quarter

Today's Extremes

State Highs State Lows

Community

WunderPhotos

Upload Photos

1,754,614 photos uploaded!

WunderBlogs® & News

Nearby

Snow Depth

Station Depth Elevation
Atigun Pass 2 in 4800 ft
MF Bradley River 4 in 2300 ft
Upper Chena 1 in 2850 ft
Coldfoot 0 in 1040 ft
Grandview 0 in 1100 ft

Earthquake Activity

City Distance Mag. Time & Date
No recent earthquake activity has been reported nearby.
Minimum magnitude displayed is 2.5.

Coastal Water Temperatures

Place Temperature
No Stations Reporting

Nearby Weather Stations